Time;durP1;ratioP1;P1;durP2;ratioP2;P2;SDS_P1;SDS_P2;PMS_P1;PMS_P2;Temp;Humidity;BMP_temperature;BMP_pressure;BME280_temperature;BME280_humidity;BME280_pressure;Samples;Min_cycle;Max_cycle;Signal;HPM_P1;HPM_P2
2023/06/17 00:00:58;;;;;;;6.00;4.05;;;;;;;21.78;41.05;101642.16;5022463;28;20040;-51
2023/06/17 00:03:23;;;;;;;5.78;4.13;;;;;;;21.76;41.64;101646.88;5022633;28;20566;-51
2023/06/17 00:05:51;;;;;;;8.82;4.35;;;;;;;21.71;41.63;101639.22;5019005;28;20058;-49
2023/06/17 00:08:16;;;;;;;9.52;4.15;;;;;;;21.68;41.54;101639.50;5022990;28;20045;-47
2023/06/17 00:10:43;;;;;;;5.20;4.15;;;;;;;21.66;41.60;101641.53;5023319;28;20060;-49
2023/06/17 00:13:09;;;;;;;5.55;4.40;;;;;;;21.62;41.75;101630.13;5023014;28;20387;-50
2023/06/17 00:15:36;;;;;;;7.20;4.75;;;;;;;21.60;42.20;101629.44;5021911;28;20029;-50
2023/06/17 00:18:03;;;;;;;6.25;4.13;;;;;;;21.58;42.29;101623.31;5021633;28;20076;-49
2023/06/17 00:20:29;;;;;;;6.65;4.28;;;;;;;21.58;42.35;101628.72;5022265;28;20152;-50
2023/06/17 00:22:54;;;;;;;8.52;3.95;;;;;;;21.56;42.08;101619.06;5026337;28;20376;-51
2023/06/17 00:25:20;;;;;;;7.53;4.45;;;;;;;21.55;42.17;101623.63;5016107;28;20034;-49
2023/06/17 00:27:45;;;;;;;6.22;3.90;;;;;;;21.55;42.27;101617.34;5021642;28;20037;-46
2023/06/17 00:30:11;;;;;;;10.52;4.38;;;;;;;21.52;42.33;101620.38;5021873;28;20048;-48
2023/06/17 00:32:36;;;;;;;7.55;4.55;;;;;;;21.50;42.75;101615.09;5019731;28;20444;-50
2023/06/17 00:35:05;;;;;;;8.27;4.43;;;;;;;21.49;42.75;101613.38;5022353;28;20040;-47
2023/06/17 00:37:31;;;;;;;4.72;4.25;;;;;;;21.46;42.55;101616.41;5021488;28;20029;-51
2023/06/17 00:39:57;;;;;;;8.45;4.10;;;;;;;21.45;42.48;101614.69;5022007;28;20056;-50
2023/06/17 00:42:23;;;;;;;7.70;4.30;;;;;;;21.43;42.84;101614.81;5021845;28;20065;-49
2023/06/17 00:44:48;;;;;;;7.95;4.47;;;;;;;21.39;43.10;101618.81;5016290;28;20128;-50
2023/06/17 00:47:14;;;;;;;11.90;4.50;;;;;;;21.37;42.95;101614.56;5019975;28;20484;-51
2023/06/17 00:49:42;;;;;;;6.90;3.88;;;;;;;21.35;42.89;101616.56;5021534;28;20092;-52
2023/06/17 00:52:10;;;;;;;4.88;4.00;;;;;;;21.32;42.92;101617.69;5021348;28;20033;-47
2023/06/17 00:54:37;;;;;;;7.45;4.18;;;;;;;21.34;42.85;101620.25;5020994;28;20034;-47
2023/06/17 00:57:05;;;;;;;5.53;4.70;;;;;;;21.33;42.84;101624.84;5021463;28;20030;-50
2023/06/17 00:59:32;;;;;;;6.32;4.95;;;;;;;21.32;42.61;101617.69;5022686;28;20042;-46
2023/06/17 01:01:58;;;;;;;6.82;4.47;;;;;;;21.29;42.56;101620.72;5020893;28;20026;-49
2023/06/17 01:04:24;;;;;;;6.28;4.82;;;;;;;21.25;42.64;101622.03;5021097;28;20099;-50
2023/06/17 01:07:35;;;;;;;7.13;5.13;;;;;;;21.25;42.67;101614.75;5022636;28;20072;-48
2023/06/17 01:10:23;;;;;;;7.57;4.93;;;;;;;21.24;42.49;101613.03;5021062;28;20439;-49
2023/06/17 01:12:51;;;;;;;11.30;5.22;;;;;;;21.19;43.21;101607.22;5020491;28;20045;-50
2023/06/17 01:15:17;;;;;;;8.32;4.65;;;;;;;21.17;43.16;101602.94;5021016;28;20059;-49
2023/06/17 01:17:46;;;;;;;7.10;4.90;;;;;;;21.16;43.06;101604.81;5019965;28;20065;-51
2023/06/17 01:20:13;;;;;;;5.78;4.70;;;;;;;21.14;43.19;101597.84;5017841;28;20484;-47
2023/06/17 01:22:40;;;;;;;8.98;5.25;;;;;;;21.11;43.37;101603.53;5023070;28;20423;-48
2023/06/17 01:25:06;;;;;;;6.88;5.30;;;;;;;21.10;43.03;101597.28;5020286;28;20499;-47
2023/06/17 01:27:33;;;;;;;6.80;4.32;;;;;;;21.07;43.56;101598.41;5021075;28;20069;-50
2023/06/17 01:29:59;;;;;;;7.28;5.40;;;;;;;21.08;43.25;101608.25;5021631;28;20034;-47
2023/06/17 01:32:25;;;;;;;9.73;5.50;;;;;;;21.05;43.53;101607.69;5021848;28;20060;-50
2023/06/17 01:35:05;;;;;;;5.70;4.82;;;;;;;21.04;43.93;101606.00;5018563;28;20491;-47
2023/06/17 01:37:53;;;;;;;7.82;5.40;;;;;;;21.02;43.80;101602.59;5020774;28;20472;-50
2023/06/17 01:40:22;;;;;;;5.15;4.65;;;;;;;21.02;43.92;101599.91;5014821;28;20032;-47
2023/06/17 01:42:50;;;;;;;5.93;5.32;;;;;;;21.02;44.15;101605.31;5019251;28;20021;-50
2023/06/17 01:45:18;;;;;;;6.03;5.20;;;;;;;20.99;43.97;101606.44;5019887;28;20041;-50
2023/06/17 01:47:44;;;;;;;6.22;5.53;;;;;;;20.98;43.87;101603.88;5020999;28;20044;-49
2023/06/17 01:50:10;;;;;;;8.38;5.57;;;;;;;20.95;43.77;101598.78;5021309;28;20476;-50
2023/06/17 01:52:35;;;;;;;8.25;5.18;;;;;;;20.94;43.82;101599.75;5019527;28;20029;-47
2023/06/17 01:55:02;;;;;;;7.10;5.43;;;;;;;20.91;43.68;101603.63;5021455;28;20029;-47
2023/06/17 01:57:28;;;;;;;7.90;5.80;;;;;;;20.87;44.33;101603.06;5018770;28;20037;-50
2023/06/17 01:59:54;;;;;;;7.35;5.35;;;;;;;20.87;44.36;101602.22;5021613;28;20108;-48
2023/06/17 02:02:20;;;;;;;10.50;6.00;;;;;;;20.84;44.64;101603.34;5019823;28;20037;-50
2023/06/17 02:04:47;;;;;;;10.48;5.97;;;;;;;20.83;44.80;101600.81;5019833;28;20091;-48
2023/06/17 02:07:13;;;;;;;9.35;5.70;;;;;;;20.81;45.00;101591.94;5016847;28;20034;-47
2023/06/17 02:09:39;;;;;;;9.63;6.03;;;;;;;20.80;45.15;101598.38;5021596;28;20542;-48
2023/06/17 02:12:06;;;;;;;8.07;5.05;;;;;;;20.80;44.76;101601.09;5020388;28;20117;-51
2023/06/17 02:14:33;;;;;;;7.13;5.22;;;;;;;20.78;44.60;101594.97;5021045;28;20037;-49
2023/06/17 02:16:58;;;;;;;10.65;5.65;;;;;;;20.76;44.42;101589.69;5016471;28;20040;-50
2023/06/17 02:19:24;;;;;;;8.60;5.45;;;;;;;20.76;44.79;101588.84;5020590;28;20029;-47
2023/06/17 02:21:49;;;;;;;7.80;5.20;;;;;;;20.79;44.71;101586.72;5019537;28;20041;-51
2023/06/17 02:24:15;;;;;;;6.78;5.00;;;;;;;20.84;44.64;101580.84;5020021;28;20124;-51
2023/06/17 02:26:41;;;;;;;11.18;4.70;;;;;;;20.89;44.85;101579.41;5021429;28;20085;-50
2023/06/17 02:29:07;;;;;;;10.73;4.10;;;;;;;20.95;44.65;101582.53;5019788;28;20033;-50
2023/06/17 02:31:33;;;;;;;8.50;4.10;;;;;;;20.99;44.71;101579.38;5020911;28;20124;-50
2023/06/17 02:34:00;;;;;;;5.43;3.95;;;;;;;21.04;44.78;101581.66;5024564;28;20391;-51
2023/06/17 02:36:26;;;;;;;7.25;4.60;;;;;;;21.06;44.98;101583.19;5016834;28;20034;-49
2023/06/17 02:38:53;;;;;;;5.57;4.35;;;;;;;21.10;44.65;101578.34;5022913;28;20045;-51
2023/06/17 02:41:18;;;;;;;6.30;4.47;;;;;;;21.13;44.34;101580.72;5023025;28;20029;-51
2023/06/17 02:43:44;;;;;;;7.43;4.75;;;;;;;21.16;44.57;101579.59;5024038;28;20033;-50
2023/06/17 02:46:09;;;;;;;5.32;4.78;;;;;;;21.19;44.67;101579.28;5024014;28;20425;-48
2023/06/17 02:48:35;;;;;;;8.30;4.78;;;;;;;21.21;44.35;101571.84;5023428;28;20034;-47
2023/06/17 02:51:01;;;;;;;5.82;4.40;;;;;;;21.20;44.49;101573.72;5024595;28;20033;-48
2023/06/17 02:53:26;;;;;;;7.65;4.85;;;;;;;21.22;44.13;101562.75;5024561;28;20045;-48
2023/06/17 02:55:53;;;;;;;6.25;5.47;;;;;;;21.24;44.23;101566.16;5024342;28;20392;-47
2023/06/17 02:58:19;;;;;;;8.48;4.88;;;;;;;21.24;43.70;101560.72;5022528;28;20044;-51
2023/06/17 03:00:46;;;;;;;5.22;4.53;;;;;;;21.26;44.03;101561.44;5023282;28;20029;-50
2023/06/17 03:03:11;;;;;;;6.10;4.93;;;;;;;21.26;44.03;101569.56;5023682;28;20140;-50
2023/06/17 03:05:41;;;;;;;5.18;4.32;;;;;;;21.26;43.63;101564.97;5021530;28;20531;-48
2023/06/17 03:08:07;;;;;;;7.88;5.50;;;;;;;21.26;43.98;101558.72;5029807;28;20462;-47
2023/06/17 03:10:34;;;;;;;6.05;4.90;;;;;;;21.26;43.93;101556.84;5020471;28;20108;-46
2023/06/17 03:13:00;;;;;;;5.72;4.82;;;;;;;21.25;43.92;101557.88;5022959;28;20069;-48
2023/06/17 03:15:26;;;;;;;5.95;4.95;;;;;;;21.27;43.93;101565.84;5021579;28;20034;-50
2023/06/17 03:17:52;;;;;;;9.23;5.18;;;;;;;21.25;43.45;101551.63;5023508;28;20052;-48
2023/06/17 03:20:17;;;;;;;5.43;4.60;;;;;;;21.25;43.87;101554.31;5023210;28;20030;-50
2023/06/17 03:22:43;;;;;;;7.30;4.63;;;;;;;21.25;43.61;101560.59;5023325;28;20116;-48
2023/06/17 03:25:09;;;;;;;5.40;4.43;;;;;;;21.26;43.72;101558.72;5022370;28;20038;-48
2023/06/17 03:27:35;;;;;;;6.90;4.20;;;;;;;21.25;43.44;101547.03;5023061;28;20025;-51
2023/06/17 03:30:00;;;;;;;5.10;4.60;;;;;;;21.26;43.49;101553.31;5024142;28;20041;-49
2023/06/17 03:32:26;;;;;;;6.97;5.38;;;;;;;21.26;43.47;101553.31;5021645;28;20075;-48
2023/06/17 03:34:52;;;;;;;6.82;4.57;;;;;;;21.26;43.41;101556.00;5021120;28;20057;-49
2023/06/17 03:37:19;;;;;;;6.28;5.10;;;;;;;21.26;43.19;101553.31;5022490;28;20479;-50
2023/06/17 03:39:44;;;;;;;6.30;4.82;;;;;;;21.26;43.32;101556.00;5023118;28;20029;-49
2023/06/17 03:42:10;;;;;;;6.85;4.50;;;;;;;21.25;43.54;101552.47;5022636;28;20041;-48
2023/06/17 03:44:35;;;;;;;6.18;5.07;;;;;;;21.26;43.41;101553.31;5021122;28;20029;-48
2023/06/17 03:47:02;;;;;;;6.43;4.70;;;;;;;21.26;42.89;101547.88;5023077;28;20026;-49
2023/06/17 03:49:27;;;;;;;7.05;4.78;;;;;;;21.26;43.11;101550.59;5021924;28;20677;-47
2023/06/17 03:51:52;;;;;;;6.38;4.82;;;;;;;21.27;43.22;101552.31;5022858;28;20030;-51
2023/06/17 03:54:18;;;;;;;5.40;4.90;;;;;;;21.28;43.16;101554.00;5023603;28;20044;-49
2023/06/17 03:56:43;;;;;;;6.57;4.88;;;;;;;21.26;43.25;101551.44;5022047;28;20377;-47
2023/06/17 03:59:10;;;;;;;9.63;5.00;;;;;;;21.26;43.29;101554.16;5022512;28;20083;-47
2023/06/17 04:01:36;;;;;;;8.95;4.75;;;;;;;21.28;43.39;101554.00;5021436;28;20120;-50
2023/06/17 04:04:01;;;;;;;7.43;4.57;;;;;;;21.27;43.31;101552.31;5021927;28;20144;-47
2023/06/17 04:06:27;;;;;;;6.50;5.00;;;;;;;21.28;42.94;101551.28;5021568;28;20030;-50
2023/06/17 04:08:53;;;;;;;7.28;4.72;;;;;;;21.30;43.07;101549.28;5021485;28;20057;-47
2023/06/17 04:11:18;;;;;;;6.60;4.97;;;;;;;21.29;43.22;101551.16;5020270;28;20040;-49
2023/06/17 04:13:44;;;;;;;7.20;4.63;;;;;;;21.31;42.93;101550.16;5023265;28;20386;-49
2023/06/17 04:16:09;;;;;;;8.57;5.35;;;;;;;21.32;42.85;101549.13;5023094;28;20442;-49
2023/06/17 04:18:35;;;;;;;8.95;4.97;;;;;;;21.32;42.91;101552.69;5021253;28;20434;-50
2023/06/17 04:21:01;;;;;;;6.25;4.82;;;;;;;21.32;43.01;101544.56;5021641;28;20570;-49
2023/06/17 04:23:27;;;;;;;5.90;4.53;;;;;;;21.34;42.95;101547.97;5025665;28;20057;-48
2023/06/17 04:25:52;;;;;;;5.00;4.50;;;;;;;21.36;42.69;101554.13;5019492;28;20116;-49
2023/06/17 04:28:17;;;;;;;6.35;5.25;;;;;;;21.37;43.12;101550.38;5021024;28;20502;-47
2023/06/17 04:30:47;;;;;;;6.35;4.70;;;;;;;21.37;42.95;101553.09;5019390;28;20047;-51
2023/06/17 04:33:14;;;;;;;6.22;4.50;;;;;;;21.38;42.83;101551.22;5022215;28;20056;-48
2023/06/17 04:35:42;;;;;;;6.25;4.68;;;;;;;21.39;43.07;101547.53;5019033;28;20069;-47
2023/06/17 04:38:11;;;;;;;7.97;4.65;;;;;;;21.41;42.81;101556.34;5021949;28;20048;-51
2023/06/17 04:40:37;;;;;;;4.50;4.10;;;;;;;21.40;42.98;101558.22;5021681;28;20032;-49
2023/06/17 04:43:03;;;;;;;7.60;4.88;;;;;;;21.40;42.92;101554.63;5021223;28;20034;-48
2023/06/17 04:45:30;;;;;;;5.80;4.82;;;;;;;21.41;42.75;101556.34;5020637;28;20033;-49
2023/06/17 04:47:56;;;;;;;7.18;4.55;;;;;;;21.41;43.40;101562.63;5021774;28;20044;-49
2023/06/17 04:50:23;;;;;;;7.90;4.65;;;;;;;21.43;42.81;101559.78;5022295;28;20025;-47
2023/06/17 04:52:51;;;;;;;5.07;4.38;;;;;;;21.42;43.35;101552.66;5022330;28;20037;-49
2023/06/17 04:55:18;;;;;;;5.40;4.90;;;;;;;21.43;42.97;101565.19;5018082;28;20033;-49
2023/06/17 04:57:44;;;;;;;9.15;4.68;;;;;;;21.43;43.48;101562.47;5020658;28;20038;-50
2023/06/17 05:00:11;;;;;;;7.63;4.85;;;;;;;21.44;43.25;101562.38;5021722;28;20435;-50
2023/06/17 05:02:40;;;;;;;5.35;4.05;;;;;;;21.45;43.21;101561.34;5020945;28;20041;-48
2023/06/17 05:05:06;;;;;;;5.75;4.65;;;;;;;21.44;43.07;101567.78;5024369;28;20042;-48
2023/06/17 05:07:32;;;;;;;6.90;4.85;;;;;;;21.45;43.68;101564.06;5022223;28;20057;-50
2023/06/17 05:09:58;;;;;;;6.90;4.57;;;;;;;21.46;43.46;101573.91;5022027;28;20034;-48
2023/06/17 05:12:23;;;;;;;6.38;5.32;;;;;;;21.46;43.74;101575.75;5021216;28;20036;-50
2023/06/17 05:14:49;;;;;;;7.03;5.40;;;;;;;21.47;43.57;101572.88;5021710;28;20129;-48
2023/06/17 05:17:14;;;;;;;6.75;5.15;;;;;;;21.48;43.63;101577.31;5021076;28;20041;-48
2023/06/17 05:19:39;;;;;;;4.65;4.13;;;;;;;21.48;43.37;101569.19;5020917;28;20032;-48
2023/06/17 05:22:05;;;;;;;6.95;5.13;;;;;;;21.50;43.50;101570.91;5021540;28;20059;-50
2023/06/17 05:24:30;;;;;;;5.57;4.68;;;;;;;21.51;43.63;101572.59;5020761;28;20034;-48
2023/06/17 05:26:56;;;;;;;8.60;5.10;;;;;;;21.52;44.11;101574.31;5019493;28;20088;-48
2023/06/17 05:29:22;;;;;;;9.02;4.72;;;;;;;21.52;43.70;101572.44;5022394;28;20030;-48
2023/06/17 05:31:47;;;;;;;9.45;5.00;;;;;;;21.52;44.05;101568.88;5021015;28;20039;-47
2023/06/17 05:34:13;;;;;;;5.80;4.93;;;;;;;21.52;44.20;101566.19;5020302;28;20116;-48
2023/06/17 05:36:38;;;;;;;8.30;5.25;;;;;;;21.52;44.09;101558.91;5020893;28;20038;-46
2023/06/17 05:39:03;;;;;;;6.63;5.10;;;;;;;21.54;44.49;101572.28;5021053;28;20450;-49
2023/06/17 05:41:29;;;;;;;5.05;4.55;;;;;;;21.53;44.35;101566.00;5020836;28;20084;-50
2023/06/17 05:43:54;;;;;;;7.22;5.10;;;;;;;21.56;44.58;101562.16;5021136;28;20044;-51
2023/06/17 05:46:19;;;;;;;7.20;5.47;;;;;;;21.56;44.54;101564.88;5021187;28;20065;-48
2023/06/17 05:48:45;;;;;;;6.97;5.50;;;;;;;21.57;44.81;101561.13;5020377;28;20033;-49
2023/06/17 05:51:10;;;;;;;6.00;4.90;;;;;;;21.58;45.24;101557.44;5021176;28;20041;-48
2023/06/17 05:53:35;;;;;;;5.95;5.30;;;;;;;21.59;45.75;101569.97;5020797;28;20060;-49
2023/06/17 05:56:01;;;;;;;9.05;5.60;;;;;;;21.59;45.23;101559.13;5020449;28;20029;-49
2023/06/17 05:58:26;;;;;;;9.35;6.32;;;;;;;21.58;46.19;101558.28;5017505;28;20029;-47
2023/06/17 06:00:51;;;;;;;11.10;7.30;;;;;;;21.58;46.08;101568.28;5019427;28;20037;-50
2023/06/17 06:03:17;;;;;;;11.88;6.97;;;;;;;21.56;46.02;101562.16;5015535;28;20184;-48
2023/06/17 06:05:42;;;;;;;11.30;7.20;;;;;;;21.56;46.29;101573.00;5017641;28;20033;-46
2023/06/17 06:08:07;;;;;;;10.02;7.47;;;;;;;21.55;46.87;101568.56;5024120;28;20041;-50
2023/06/17 06:10:33;;;;;;;9.85;6.95;;;;;;;21.55;46.48;101574.84;5024149;28;20475;-50
2023/06/17 06:12:59;;;;;;;16.20;7.60;;;;;;;21.55;46.41;101564.03;5022206;28;20030;-49
2023/06/17 06:15:25;;;;;;;9.27;7.55;;;;;;;21.54;47.44;101562.31;5025123;28;20037;-47
2023/06/17 06:17:51;;;;;;;11.13;6.85;;;;;;;21.55;47.51;101564.03;5024011;28;20124;-47
2023/06/17 06:20:17;;;;;;;9.02;7.80;;;;;;;21.55;47.50;101557.72;5022828;28;20073;-46
2023/06/17 06:22:42;;;;;;;10.60;7.55;;;;;;;21.56;47.29;101570.28;5024734;28;20053;-48
2023/06/17 06:25:08;;;;;;;9.40;7.25;;;;;;;21.55;47.68;101564.03;5024540;28;20029;-50
2023/06/17 06:27:33;;;;;;;11.90;8.18;;;;;;;21.56;47.41;101570.28;5023926;28;20456;-46
2023/06/17 06:29:58;;;;;;;8.93;7.30;;;;;;;21.57;47.27;101563.84;5022157;28;20026;-47
2023/06/17 06:32:24;;;;;;;10.18;7.45;;;;;;;21.58;47.43;101560.13;5023852;28;20117;-48
2023/06/17 06:34:49;;;;;;;12.10;7.32;;;;;;;21.57;47.85;101563.84;5022698;28;20084;-48
2023/06/17 06:37:15;;;;;;;13.68;7.60;;;;;;;21.57;47.63;101564.72;5023873;28;20049;-50
2023/06/17 06:39:42;;;;;;;13.35;7.57;;;;;;;21.57;47.84;101558.41;5022762;28;20029;-47
2023/06/17 06:42:08;;;;;;;9.82;8.13;;;;;;;21.57;48.04;101566.56;5022562;28;20037;-49
2023/06/17 06:44:33;;;;;;;10.70;7.72;;;;;;;21.58;48.04;101557.44;5023341;28;20034;-51
2023/06/17 06:46:59;;;;;;;10.40;7.22;;;;;;;21.59;47.62;101565.41;5022830;28;20018;-47
2023/06/17 06:49:24;;;;;;;9.98;6.50;;;;;;;21.61;47.80;101554.41;5024310;28;20034;-46
2023/06/17 06:51:49;;;;;;;8.52;6.78;;;;;;;21.61;47.70;101559.81;5024178;28;20065;-46
2023/06/17 06:54:15;;;;;;;9.10;6.15;;;;;;;21.63;47.04;101566.81;5022491;28;20037;-49
2023/06/17 06:56:40;;;;;;;8.18;5.47;;;;;;;21.64;47.01;101564.94;5022393;28;20387;-47
2023/06/17 06:59:05;;;;;;;10.18;5.97;;;;;;;21.66;47.09;101571.06;5024170;28;20026;-46
2023/06/17 07:01:31;;;;;;;7.05;5.35;;;;;;;21.66;46.64;101571.06;5023000;28;20029;-47
2023/06/17 07:03:57;;;;;;;6.30;4.82;;;;;;;21.66;46.62;101566.47;5021868;28;20507;-51
2023/06/17 07:06:22;;;;;;;5.95;5.30;;;;;;;21.67;46.23;101557.38;5022460;28;20116;-51
2023/06/17 07:08:48;;;;;;;6.03;4.40;;;;;;;21.69;46.38;101564.50;5023426;28;20171;-47
2023/06/17 07:11:13;;;;;;;4.85;4.45;;;;;;;21.71;46.04;101565.19;5017579;28;20040;-46
2023/06/17 07:13:39;;;;;;;5.55;4.63;;;;;;;21.71;46.12;101567.91;5022760;28;20026;-47
2023/06/17 07:16:04;;;;;;;7.35;4.80;;;;;;;21.72;46.10;101570.44;5023436;28;20472;-47
2023/06/17 07:18:30;;;;;;;5.82;4.30;;;;;;;21.72;46.01;101565.03;5018361;28;20121;-50
2023/06/17 07:20:56;;;;;;;6.35;4.55;;;;;;;21.73;45.63;101565.91;5022346;28;20048;-50
2023/06/17 07:23:23;;;;;;;5.32;4.80;;;;;;;21.75;45.88;101569.31;5023276;28;20067;-48
2023/06/17 07:25:48;;;;;;;9.45;4.50;;;;;;;21.75;45.43;101564.72;5019638;28;20042;-50
2023/06/17 07:28:14;;;;;;;6.05;4.35;;;;;;;21.76;45.35;101561.03;5016581;28;20483;-50
2023/06/17 07:30:40;;;;;;;7.28;3.72;;;;;;;21.77;45.73;101565.41;5022095;28;20036;-48
2023/06/17 07:33:05;;;;;;;4.90;4.22;;;;;;;21.78;45.25;101561.72;5021558;28;20025;-47
2023/06/17 07:35:31;;;;;;;4.47;4.07;;;;;;;21.78;45.55;101571.69;5022626;28;20388;-49
2023/06/17 07:37:56;;;;;;;6.18;4.25;;;;;;;21.78;45.30;101564.44;5024933;28;20061;-48
2023/06/17 07:40:22;;;;;;;5.43;4.10;;;;;;;21.78;45.07;101567.13;5023371;28;20430;-47
2023/06/17 07:42:47;;;;;;;6.35;3.75;;;;;;;21.80;45.52;101564.25;5023531;28;20769;-46
2023/06/17 07:45:12;;;;;;;5.40;4.03;;;;;;;21.80;45.05;101562.41;5023413;28;20124;-46
2023/06/17 07:47:38;;;;;;;4.82;4.22;;;;;;;21.80;45.33;101567.84;5020457;28;20545;-49
2023/06/17 07:50:05;;;;;;;7.63;4.35;;;;;;;21.81;45.14;101563.25;5021253;28;20171;-49
2023/06/17 07:52:33;;;;;;;4.47;4.07;;;;;;;21.81;44.67;101558.69;5022197;28;20055;-47
2023/06/17 07:54:59;;;;;;;4.90;4.15;;;;;;;21.81;44.65;101555.13;5024066;28;20371;-48
2023/06/17 07:57:25;;;;;;;4.68;3.80;;;;;;;21.82;44.69;101552.25;5024714;28;20033;-47
2023/06/17 07:59:51;;;;;;;5.82;4.00;;;;;;;21.83;44.53;101555.81;5023667;28;20037;-48
2023/06/17 08:02:16;;;;;;;3.90;3.60;;;;;;;21.83;44.70;101545.81;5021797;28;20396;-47
2023/06/17 08:04:42;;;;;;;4.15;3.75;;;;;;;21.83;44.48;101553.94;5020440;28;20059;-46
2023/06/17 08:07:07;;;;;;;4.32;3.92;;;;;;;21.84;44.56;101557.53;5017093;28;20483;-47
2023/06/17 08:09:33;;;;;;;4.05;3.65;;;;;;;21.84;44.61;101552.97;5018052;28;20195;-46
2023/06/17 08:11:58;;;;;;;4.68;3.72;;;;;;;21.85;44.54;101556.50;5023296;28;20127;-46
2023/06/17 08:14:23;;;;;;;4.25;3.55;;;;;;;21.86;44.28;101553.66;5022131;28;20456;-46
2023/06/17 08:16:49;;;;;;;4.32;3.60;;;;;;;21.85;43.99;101557.34;5020353;28;20504;-47
2023/06/17 08:19:14;;;;;;;4.30;3.70;;;;;;;21.86;44.06;101550.09;5022008;28;20038;-47
2023/06/17 08:21:42;;;;;;;4.25;3.75;;;;;;;21.86;44.59;101544.69;5022293;28;20025;-46
2023/06/17 08:24:21;;;;;;;4.00;3.53;;;;;;;21.88;44.30;101547.25;5020861;28;20133;-47
2023/06/17 08:26:47;;;;;;;4.32;3.42;;;;;;;21.88;44.33;101547.25;5021781;28;20083;-47
2023/06/17 08:29:13;;;;;;;4.13;3.58;;;;;;;21.88;43.99;101553.50;5017496;28;20476;-45
2023/06/17 08:31:40;;;;;;;4.07;3.67;;;;;;;21.89;44.50;101551.63;5020507;28;20503;-47
2023/06/17 08:34:06;;;;;;;4.00;3.60;;;;;;;21.89;44.17;101538.06;5020743;28;20468;-46
2023/06/17 08:36:32;;;;;;;3.88;3.58;;;;;;;21.90;44.44;101546.06;5020797;28;20131;-46
2023/06/17 08:38:58;;;;;;;3.65;3.30;;;;;;;21.90;44.36;101539.81;5020351;28;20116;-45
2023/06/17 08:41:23;;;;;;;4.05;3.42;;;;;;;21.91;43.71;101538.78;5018973;28;20090;-46
2023/06/17 08:43:51;;;;;;;7.00;3.67;;;;;;;21.91;44.52;101544.19;5019495;28;20049;-47
2023/06/17 08:46:19;;;;;;;4.10;3.70;;;;;;;21.91;44.45;101547.75;5022829;28;20033;-45
2023/06/17 08:48:46;;;;;;;3.70;3.40;;;;;;;21.91;44.27;101541.50;5022908;28;20030;-48
2023/06/17 08:51:12;;;;;;;4.65;3.35;;;;;;;21.92;43.81;101545.91;5018031;28;20419;-46
2023/06/17 08:53:39;;;;;;;5.07;3.40;;;;;;;21.93;44.31;101544.91;5022148;28;20036;-46
2023/06/17 08:56:05;;;;;;;4.85;3.30;;;;;;;21.93;44.08;101551.16;5021069;28;20483;-46
2023/06/17 08:58:30;;;;;;;4.38;3.88;;;;;;;21.93;44.41;101534.03;5022010;28;20127;-46
2023/06/17 09:00:58;;;;;;;4.22;3.83;;;;;;;21.94;44.24;101541.19;5021402;28;20030;-47
2023/06/17 09:03:25;;;;;;;3.83;3.47;;;;;;;21.95;43.89;101541.03;5020928;28;20068;-46
2023/06/17 09:05:53;;;;;;;3.17;2.97;;;;;;;21.94;44.23;101539.31;5019626;28;20396;-46
2023/06/17 09:08:18;;;;;;;3.70;3.40;;;;;;;21.96;44.05;101539.16;5022708;28;20040;-49
2023/06/17 09:10:44;;;;;;;5.05;3.33;;;;;;;21.96;43.79;101541.88;5016830;28;20041;-46
2023/06/17 09:13:10;;;;;;;4.13;3.35;;;;;;;21.96;44.03;101544.59;5020693;28;20033;-47
2023/06/17 09:15:40;;;;;;;3.40;3.10;;;;;;;21.96;43.80;101540.00;5021738;28;20040;-47
2023/06/17 09:18:07;;;;;;;3.40;3.08;;;;;;;21.96;43.73;101536.47;5020356;28;20037;-48
2023/06/17 09:20:33;;;;;;;4.20;3.40;;;;;;;21.98;44.10;101542.56;5024771;28;20087;-48
2023/06/17 09:22:58;;;;;;;3.83;3.38;;;;;;;21.98;43.91;101537.16;5023381;28;20034;-48
2023/06/17 09:25:24;;;;;;;3.72;3.42;;;;;;;21.98;43.71;101543.41;5022422;28;20072;-47
2023/06/17 09:27:53;;;;;;;3.53;3.22;;;;;;;21.99;44.03;101538.84;5019972;28;20056;-49
2023/06/17 09:30:22;;;;;;;3.45;3.15;;;;;;;21.99;43.69;101541.56;5020623;28;20036;-47
2023/06/17 09:32:51;;;;;;;3.58;3.33;;;;;;;21.99;44.23;101546.97;5021196;28;20431;-46
2023/06/17 09:35:17;;;;;;;5.05;3.58;;;;;;;22.00;43.90;101537.84;5021937;28;20427;-46
2023/06/17 09:37:51;;;;;;;3.53;2.83;;;;;;;22.00;44.01;101535.13;5020694;28;20029;-46
2023/06/17 09:40:16;;;;;;;3.08;2.78;;;;;;;22.01;43.60;101534.13;5020771;28;20056;-48
2023/06/17 09:42:43;;;;;;;4.80;3.22;;;;;;;22.01;43.97;101539.56;5022374;28;20484;-46
2023/06/17 09:45:11;;;;;;;4.57;3.67;;;;;;;22.01;43.62;101529.56;5021422;28;20026;-45
2023/06/17 09:47:37;;;;;;;3.50;3.20;;;;;;;22.02;43.88;101533.97;5018466;28;20029;-46
2023/06/17 09:50:10;;;;;;;3.42;3.13;;;;;;;22.03;43.64;101532.13;5021360;28;20375;-45
2023/06/17 09:52:37;;;;;;;3.38;3.08;;;;;;;22.02;43.71;101533.97;5021122;28;20036;-46
2023/06/17 09:55:03;;;;;;;4.22;3.40;;;;;;;22.04;43.85;101536.53;5020066;28;20041;-46
2023/06/17 09:57:32;;;;;;;3.28;3.03;;;;;;;22.04;43.64;101531.94;5021304;28;20435;-47
2023/06/17 10:00:10;;;;;;;3.53;3.22;;;;;;;22.04;43.95;101526.50;5021999;28;20479;-47
2023/06/17 10:02:37;;;;;;;3.53;3.22;;;;;;;22.05;43.59;101527.38;5021321;28;20549;-46
2023/06/17 10:05:03;;;;;;;3.28;2.97;;;;;;;22.05;43.93;101528.22;5021804;28;20057;-47
2023/06/17 10:07:29;;;;;;;3.90;3.30;;;;;;;22.06;43.81;101532.63;5018007;28;20464;-46
2023/06/17 10:09:56;;;;;;;3.22;2.92;;;;;;;22.06;43.76;101527.22;5019354;28;20034;-46
2023/06/17 10:12:23;;;;;;;3.38;3.08;;;;;;;22.07;43.73;101522.66;5019842;28;20100;-46
2023/06/17 10:14:49;;;;;;;3.55;3.25;;;;;;;22.09;43.62;101523.34;5021531;28;20040;-46
2023/06/17 10:17:16;;;;;;;3.05;2.75;;;;;;;22.09;43.96;101517.94;5019528;28;20361;-46
2023/06/17 10:19:43;;;;;;;4.28;2.85;;;;;;;22.08;43.80;101518.91;5021981;28;20152;-46
2023/06/17 10:22:12;;;;;;;3.45;3.15;;;;;;;22.10;44.05;101514.19;5021395;28;20029;-46
2023/06/17 10:24:38;;;;;;;3.30;3.00;;;;;;;22.10;43.68;101514.19;5019618;28;20033;-46
2023/06/17 10:27:05;;;;;;;3.33;2.92;;;;;;;22.10;43.80;101508.75;5021158;28;20038;-46
2023/06/17 10:29:32;;;;;;;3.47;3.17;;;;;;;22.11;43.54;101509.63;5020789;28;20128;-48
2023/06/17 10:32:17;;;;;;;3.30;2.88;;;;;;;22.12;44.11;101506.75;5020804;28;20432;-46
2023/06/17 10:35:05;;;;;;;3.30;3.00;;;;;;;22.14;43.71;101506.59;5020446;28;20439;-45
2023/06/17 10:37:30;;;;;;;3.75;2.90;;;;;;;22.12;43.75;101506.75;5019579;28;20065;-47
2023/06/17 10:40:20;;;;;;;3.28;2.72;;;;;;;22.15;43.94;101503.72;5020240;28;20448;-51
2023/06/17 10:43:00;;;;;;;3.17;2.85;;;;;;;22.15;44.06;101502.88;5018095;28;20084;-46
2023/06/17 10:45:29;;;;;;;3.00;2.80;;;;;;;22.15;43.70;101494.75;5017469;28;20065;-47
2023/06/17 10:48:20;;;;;;;3.42;3.13;;;;;;;22.17;43.82;101503.56;5020328;28;20029;-46
2023/06/17 10:51:10;;;;;;;3.17;2.88;;;;;;;22.16;44.18;101497.31;5019642;28;20033;-46
2023/06/17 10:53:36;;;;;;;3.63;3.33;;;;;;;22.16;43.72;101497.31;5023878;28;20041;-45
2023/06/17 10:56:06;;;;;;;3.83;3.15;;;;;;;22.16;43.58;101510.88;5020513;28;20034;-45
2023/06/17 10:58:35;;;;;;;3.55;2.97;;;;;;;22.17;43.92;101501.72;5024362;28;20088;-47
2023/06/17 11:01:05;;;;;;;4.43;3.42;;;;;;;22.18;44.24;101495.28;5024200;28;20403;-47
2023/06/17 11:03:31;;;;;;;4.77;3.50;;;;;;;22.19;43.87;101493.41;5022461;28;20233;-47
2023/06/17 11:06:04;;;;;;;3.53;3.22;;;;;;;22.18;43.95;101492.56;5021620;28;20092;-47
2023/06/17 11:08:31;;;;;;;3.22;2.92;;;;;;;22.19;44.02;101490.72;5022611;28;20052;-46
2023/06/17 11:11:16;;;;;;;3.17;2.88;;;;;;;22.21;44.08;101486.81;5024420;28;20030;-46
2023/06/17 11:13:44;;;;;;;3.33;2.85;;;;;;;22.21;44.02;101483.25;5023732;28;20052;-46
2023/06/17 11:16:10;;;;;;;3.25;2.95;;;;;;;22.20;43.64;101485.13;5023357;28;20095;-48
2023/06/17 11:18:37;;;;;;;3.40;3.10;;;;;;;22.21;43.72;101484.09;5023821;28;20472;-47
2023/06/17 11:21:06;;;;;;;3.13;2.92;;;;;;;22.22;43.58;101472.25;5023721;28;20029;-46
2023/06/17 11:23:33;;;;;;;3.38;3.03;;;;;;;22.23;44.08;101467.66;5024492;28;20040;-46